Time;durP1;ratioP1;P1;durP2;ratioP2;P2;SDS_P1;SDS_P2;PMS_P1;PMS_P2;Temp;Humidity;BMP_temperature;BMP_pressure;BME280_temperature;BME280_humidity;BME280_pressure;Samples;Min_cycle;Max_cycle;Signal;HPM_P1;HPM_P2
2024/04/19 00:00:47;;;;;;;13.7;7.4;;;;;;;3.81;84.34;98348.333333333;;;;
2024/04/19 00:10:47;;;;;;;15.7;7.5;;;;;;;3.9;84.04;98348.333333333;;;;
2024/04/19 00:21:47;;;;;;;15.7;7.5;;;;;;;3.76;84.26;98348.333333333;;;;
2024/04/19 00:32:47;;;;;;;15.7;7.5;;;;;;;3.64;83.96;98348.333333333;;;;
2024/04/19 00:42:47;;;;;;;14.7;8.1;;;;;;;3.52;84.43;98353.333333333;;;;
2024/04/19 00:53:47;;;;;;;14.7;8.1;;;;;;;3.6;84.08;98348.333333333;;;;
2024/04/19 01:03:47;;;;;;;14.7;8.1;;;;;;;3.5;83.87;98350;;;;
2024/04/19 01:13:48;;;;;;;13.7;7.6;;;;;;;3.43;84.25;98341.666666667;;;;
2024/04/19 01:24:47;;;;;;;13.7;7.6;;;;;;;3.34;84.44;98343.333333333;;;;
2024/04/19 01:35:47;;;;;;;13.7;7.6;;;;;;;3.23;84.47;98343.333333333;;;;
2024/04/19 01:45:47;;;;;;;13.6;7;;;;;;;3;84.67;98341.666666667;;;;
2024/04/19 01:55:47;;;;;;;13.6;7;;;;;;;2.76;84.75;98338.333333333;;;;
2024/04/19 02:05:47;;;;;;;13.6;7;;;;;;;2.7;85.52;98341.666666667;;;;
2024/04/19 02:15:48;;;;;;;12;7;;;;;;;2.72;85.53;98343.333333333;;;;
2024/04/19 02:26:52;;;;;;;12;7;;;;;;;2.68;85.66;98333.333333333;;;;
2024/04/19 02:37:47;;;;;;;12;7;;;;;;;2.56;85.57;98321.666666667;;;;
2024/04/19 02:47:47;;;;;;;11.4;6.3;;;;;;;2.41;85.5;98323.333333333;;;;
2024/04/19 02:58:48;;;;;;;11.4;6.3;;;;;;;2.24;85.8;98321.666666667;;;;
2024/04/19 03:09:47;;;;;;;9.2;4.9;;;;;;;2.1;87.18;98320;;;;
2024/04/19 03:20:47;;;;;;;9.2;4.9;;;;;;;2.07;87.35;98323.333333333;;;;
2024/04/19 03:31:47;;;;;;;9.2;4.9;;;;;;;1.95;87.15;98315;;;;
2024/04/19 03:41:49;;;;;;;9.1;5.5;;;;;;;1.87;87.08;98313.333333333;;;;
2024/04/19 03:51:47;;;;;;;9.1;5.5;;;;;;;1.79;87.01;98315;;;;
2024/04/19 04:02:47;;;;;;;9.1;5.5;;;;;;;1.73;86.9;98316.666666667;;;;
2024/04/19 04:12:49;;;;;;;14.2;6;;;;;;;1.73;86.96;98310;;;;
2024/04/19 04:23:47;;;;;;;14.2;6;;;;;;;1.85;87.02;98311.666666667;;;;
2024/04/19 04:33:48;;;;;;;14.2;6;;;;;;;1.92;88.04;98311.666666667;;;;
2024/04/19 04:44:47;;;;;;;10;6.3;;;;;;;2.17;88.06;98296.666666667;;;;
2024/04/19 04:54:47;;;;;;;10;6.3;;;;;;;2.41;87.79;98293.333333333;;;;
2024/04/19 05:04:47;;;;;;;10;6.3;;;;;;;2.77;87.2;98290;;;;
2024/04/19 05:14:48;;;;;;;11;5.8;;;;;;;3.23;86.44;98283.333333333;;;;
2024/04/19 05:25:50;;;;;;;11;5.8;;;;;;;3.67;84.63;98283.333333333;;;;
2024/04/19 05:35:48;;;;;;;11;5.8;;;;;;;4.18;83.35;98281.666666667;;;;
2024/04/19 05:45:47;;;;;;;9.4;4.9;;;;;;;4.73;82.29;98280;;;;
2024/04/19 05:56:48;;;;;;;9.4;4.9;;;;;;;5.47;79.2;98266.666666667;;;;
2024/04/19 06:06:48;;;;;;;9.4;4.9;;;;;;;6.04;76.74;98256.666666667;;;;
2024/04/19 06:17:48;;;;;;;7.1;4.3;;;;;;;6.3;71.9;98256.666666667;;;;
2024/04/19 06:27:48;;;;;;;7.1;4.3;;;;;;;6.27;71.11;98256.666666667;;;;
2024/04/19 06:38:48;;;;;;;4.1;2;;;;;;;6.73;69.86;98250;;;;
2024/04/19 06:48:48;;;;;;;4.1;2;;;;;;;6.75;69.34;98246.666666667;;;;
2024/04/19 06:59:48;;;;;;;4.1;2;;;;;;;7.25;67.37;98235;;;;
2024/04/19 07:10:50;;;;;;;5.5;2;;;;;;;7.66;64.53;98223.333333333;;;;
2024/04/19 07:21:48;;;;;;;5.5;2;;;;;;;7.95;63.78;98206.666666667;;;;
2024/04/19 07:32:49;;;;;;;5.5;2;;;;;;;8.33;60.59;98205;;;;
2024/04/19 07:42:48;;;;;;;4.1;1.6;;;;;;;8.53;60.04;98196.666666667;;;;
2024/04/19 07:53:48;;;;;;;4.1;1.6;;;;;;;8.33;58.97;98190;;;;
2024/04/19 08:03:48;;;;;;;4.1;1.6;;;;;;;9.03;59.52;98176.666666667;;;;
2024/04/19 08:14:48;;;;;;;3.6;1.6;;;;;;;8.91;55.59;98173.333333333;;;;
2024/04/19 08:24:48;;;;;;;3.6;1.6;;;;;;;9.06;53.1;98166.666666667;;;;
2024/04/19 08:34:48;;;;;;;3.6;1.6;;;;;;;8.93;55.43;98165;;;;
2024/04/19 08:45:48;;;;;;;3.7;1.9;;;;;;;10.38;55.11;98146.666666667;;;;
2024/04/19 08:55:48;;;;;;;3.7;1.9;;;;;;;10.69;50.58;98133.333333333;;;;
2024/04/19 09:06:48;;;;;;;3.7;1.9;;;;;;;10.65;50.11;98130;;;;
2024/04/19 09:16:48;;;;;;;2.8;1.2;;;;;;;10.47;50.35;98121.666666667;;;;
2024/04/19 09:26:48;;;;;;;2.8;1.2;;;;;;;10.37;52.45;98118.333333333;;;;
2024/04/19 09:37:48;;;;;;;4.2;1.6;;;;;;;9.98;51.74;98116.666666667;;;;
2024/04/19 09:47:48;;;;;;;4.2;1.6;;;;;;;10.7;51.48;98095;;;;
2024/04/19 09:57:48;;;;;;;4.2;1.6;;;;;;;11.06;50.16;98081.666666667;;;;
2024/04/19 10:08:48;;;;;;;3.8;1.9;;;;;;;12.03;49.61;98051.666666667;;;;
2024/04/19 10:18:50;;;;;;;3.8;1.9;;;;;;;12.15;45.99;98030;;;;
2024/04/19 10:29:48;;;;;;;3.8;1.9;;;;;;;11.82;44.5;98015;;;;
2024/04/19 10:39:48;;;;;;;3.8;1.8;;;;;;;12.2;46.08;97995;;;;
2024/04/19 10:50:48;;;;;;;3.8;1.8;;;;;;;11.51;42.99;97983.333333333;;;;
2024/04/19 11:01:48;;;;;;;3.8;1.8;;;;;;;11.53;45.37;97975;;;;
2024/04/19 11:11:48;;;;;;;3.1;1.8;;;;;;;11.09;50.85;97965;;;;
2024/04/19 11:22:48;;;;;;;3.1;1.8;;;;;;;12.12;51.41;97943.333333333;;;;
2024/04/19 11:32:48;;;;;;;3.1;1.8;;;;;;;12.45;47.37;97933.333333333;;;;
2024/04/19 11:42:50;;;;;;;2.9;1.5;;;;;;;12.01;49.84;97913.333333333;;;;
2024/04/19 11:53:48;;;;;;;2.9;1.5;;;;;;;12.87;47.35;97901.666666667;;;;
2024/04/19 12:04:48;;;;;;;2.9;1.5;;;;;;;12.6;46.37;97891.666666667;;;;
2024/04/19 12:15:48;;;;;;;4.2;1.9;;;;;;;12.56;49.25;97886.666666667;;;;
2024/04/19 12:26:48;;;;;;;4.2;1.9;;;;;;;13.01;48.9;97868.333333333;;;;
2024/04/19 12:37:49;;;;;;;5.7;2.7;;;;;;;12.63;46.26;97863.333333333;;;;
2024/04/19 12:48:48;;;;;;;5.7;2.7;;;;;;;11.56;51.94;97860;;;;
2024/04/19 12:58:48;;;;;;;5.7;2.7;;;;;;;11.72;52.92;97856.666666667;;;;
2024/04/19 13:09:48;;;;;;;3.9;2;;;;;;;11.31;55.5;97841.666666667;;;;
2024/04/19 13:20:48;;;;;;;3.9;2;;;;;;;11.71;51.75;97833.333333333;;;;
2024/04/19 13:31:50;;;;;;;3.9;2;;;;;;;11.81;52.49;97818.333333333;;;;
2024/04/19 13:41:48;;;;;;;4.6;1.8;;;;;;;11.81;54.44;97805;;;;
2024/04/19 13:51:48;;;;;;;4.6;1.8;;;;;;;11.96;50.89;97790;;;;
2024/04/19 14:01:48;;;;;;;4.6;1.8;;;;;;;12.04;49.8;97781.666666667;;;;
2024/04/19 14:11:48;;;;;;;3.5;1.8;;;;;;;12.19;48.86;97778.333333333;;;;
2024/04/19 14:22:48;;;;;;;3.5;1.8;;;;;;;11.68;50.88;97761.666666667;;;;
2024/04/19 14:32:48;;;;;;;3.5;1.8;;;;;;;12.25;50.01;97741.666666667;;;;
2024/04/19 14:42:48;;;;;;;3.5;2;;;;;;;12.25;48.64;97731.666666667;;;;
2024/04/19 14:53:48;;;;;;;3.5;2;;;;;;;11.59;49.06;97715;;;;
2024/04/19 15:03:49;;;;;;;3.5;2;;;;;;;11.3;50.13;97708.333333333;;;;
2024/04/19 15:14:48;;;;;;;3.4;1.8;;;;;;;11.97;49.46;97690;;;;
2024/04/19 15:24:49;;;;;;;3.4;1.8;;;;;;;12.17;50.3;97678.333333333;;;;
2024/04/19 15:35:48;;;;;;;3.4;1.8;;;;;;;11.88;47.74;97675;;;;
2024/04/19 15:45:48;;;;;;;3.8;1.6;;;;;;;12.2;49.01;97668.333333333;;;;
2024/04/19 15:55:48;;;;;;;3.8;1.6;;;;;;;12.5;46.72;97660;;;;
2024/04/19 16:05:48;;;;;;;3.8;1.6;;;;;;;13.27;44.21;97661.666666667;;;;
2024/04/19 16:15:48;;;;;;;5.4;2;;;;;;;13;43.71;97655;;;;
2024/04/19 16:26:48;;;;;;;5.4;2;;;;;;;12.05;47.18;97646.666666667;;;;
2024/04/19 16:36:49;;;;;;;5.4;2;;;;;;;11.75;45.69;97636.666666667;;;;
2024/04/19 16:46:48;;;;;;;4.1;2;;;;;;;10.95;47.88;97636.666666667;;;;
2024/04/19 16:56:48;;;;;;;4.1;2;;;;;;;10.83;49.45;97636.666666667;;;;
2024/04/19 17:06:48;;;;;;;4.1;2;;;;;;;10.27;51.17;97638.333333333;;;;
2024/04/19 17:17:48;;;;;;;3.7;1.8;;;;;;;9.47;52.32;97650;;;;
2024/04/19 17:27:48;;;;;;;3.7;1.8;;;;;;;8.97;54.39;97658.333333333;;;;
2024/04/19 17:37:48;;;;;;;3.3;1.9;;;;;;;8.4;55.4;97668.333333333;;;;
2024/04/19 17:47:49;;;;;;;3.3;1.9;;;;;;;8.25;57.73;97666.666666667;;;;
2024/04/19 17:58:48;;;;;;;3.3;1.9;;;;;;;8.11;58.95;97665;;;;
2024/04/19 18:09:48;;;;;;;3;1.5;;;;;;;7.89;60.24;97663.333333333;;;;
2024/04/19 18:19:48;;;;;;;3;1.5;;;;;;;7.5;61.04;97656.666666667;;;;
2024/04/19 18:29:48;;;;;;;3;1.5;;;;;;;7.18;62.68;97651.666666667;;;;
2024/04/19 18:40:48;;;;;;;4.3;2.2;;;;;;;6.73;64.54;97656.666666667;;;;
2024/04/19 18:50:48;;;;;;;4.3;2.2;;;;;;;6.6;65.56;97658.333333333;;;;
2024/04/19 19:01:48;;;;;;;4.3;2.2;;;;;;;6.46;66.19;97656.666666667;;;;
2024/04/19 19:11:48;;;;;;;5;2.1;;;;;;;6.29;66.73;97655;;;;
2024/04/19 19:21:48;;;;;;;5;2.1;;;;;;;6.03;68.56;97640;;;;
2024/04/19 19:31:48;;;;;;;5;2.1;;;;;;;6.04;68.68;97623.333333333;;;;
2024/04/19 19:42:49;;;;;;;5;2.4;;;;;;;6.26;68.57;97610;;;;
2024/04/19 19:52:48;;;;;;;5;2.4;;;;;;;6.41;67.72;97605;;;;
2024/04/19 20:13:48;;;;;;;5.1;2.3;;;;;;;6.42;67.18;97606.666666667;;;;
2024/04/19 20:23:48;;;;;;;5.1;2.3;;;;;;;6.46;67.56;97613.333333333;;;;
2024/04/19 20:34:48;;;;;;;5.1;2.3;;;;;;;6.44;67.62;97603.333333333;;;;
2024/04/19 20:44:48;;;;;;;6.2;2.1;;;;;;;6.35;68.29;97611.666666667;;;;
2024/04/19 20:55:48;;;;;;;6.2;2.1;;;;;;;6.25;68.94;97611.666666667;;;;
2024/04/19 21:05:48;;;;;;;6.2;2.1;;;;;;;6.16;70.9;97608.333333333;;;;
2024/04/19 21:16:48;;;;;;;4.4;2.2;;;;;;;6.34;69.64;97611.666666667;;;;
2024/04/19 21:26:48;;;;;;;4.4;2.2;;;;;;;6.6;69.88;97610;;;;
2024/04/19 21:37:48;;;;;;;5.5;2.5;;;;;;;6.75;71.14;97605;;;;
2024/04/19 21:47:49;;;;;;;5.5;2.5;;;;;;;6.91;70.29;97611.666666667;;;;
2024/04/19 21:58:49;;;;;;;5.5;2.5;;;;;;;6.93;71.99;97603.333333333;;;;
2024/04/19 22:08:48;;;;;;;4;1.8;;;;;;;6.91;72.41;97591.666666667;;;;
2024/04/19 22:18:48;;;;;;;4;1.8;;;;;;;6.83;73.28;97590;;;;
2024/04/19 22:28:48;;;;;;;4;1.8;;;;;;;6.78;73.29;97580;;;;
2024/04/19 22:38:49;;;;;;;3.1;1.5;;;;;;;6.76;72.72;97576.666666667;;;;
2024/04/19 22:48:48;;;;;;;3.1;1.5;;;;;;;6.83;72.4;97581.666666667;;;;
2024/04/19 22:58:48;;;;;;;3.1;1.5;;;;;;;6.85;72.73;97578.333333333;;;;
2024/04/19 23:09:48;;;;;;;2.8;1.4;;;;;;;6.99;72.65;97575;;;;
2024/04/19 23:19:48;;;;;;;2.8;1.4;;;;;;;6.92;72.56;97573.333333333;;;;
2024/04/19 23:30:48;;;;;;;2.8;1.4;;;;;;;6.92;73.04;97570;;;;
2024/04/19 23:40:48;;;;;;;2.3;1.2;;;;;;;6.95;73.5;97561.666666667;;;;
2024/04/19 23:51:48;;;;;;;2.3;1.2;;;;;;;6.97;73.35;97550;;;;
